Historyczne dane pomiarowe

Dodano dane terminowe – wersja testowa.

Dane z okresu 1951-2019

Wersja bazy: 1.34 [2019-03-16, lista zmian], aktualizacja planowana na 2019-04-15

Dane meteo z obszaru Polski uzyskane na podstawie danych udostępnionych przez Instytut Meteorologii i Gospodarki Wodnej – Państwowy Instytut Badawczy.

 

Wybierz Datę:    

       

TemperaturaWilgotnośćWiatrCiśnienieOpadyŚniegCzas trwania zjawisk
 Stacja t tx tn tng RH VA  wxwx mslp ppp RRR   cm mm wxwxwxwxwxwxwx
1991-03-15 8.7 16.9 -0.9 -4.2 67.8- 2.3 1.3---- 0.7------------
1991-03-14 7.4 17.2 -1.5 -2.3 71.5- 2.7 1.0---- 0.0------------
1991-03-13 6.6 14.2 1.0 -3.4 85.5- 3.0 0.3---- 0.0------------
1991-03-12 8.4 13.7 4.8 2.0 82.3- 6.0 1.0---- 0.0------------
1991-03-11 8.6 11.6 5.8 4.3 85.5- 7.7 0.3---- 0.0------------
1991-03-10 8.3 12.4 1.2 -1.8 73.5- 4.7 2.7---- 0.0------------
1991-03-09 11.0 16.6 4.1 1.4 63.0- 8.0 0.7---- 0.0------------
1991-03-08 7.8 14.8 0.6 -2.0 75.8- 2.7 3.7---- 0.0------------
1991-03-07 4.7 8.3 0.8 0.4 81.0- 7.0 3.7---- 0.0------------
1991-03-06 2.4 5.1 -1.5 -4.7 88.3- 8.0 2.7---- 0.3------------
1991-03-05 1.7 7.5 -3.5 -6.5 86.3- 5.7 0.7---- 0.0------------
1991-03-04 3.4 10.1 -2.0 -5.7 81.5- 0.7 1.7---- 0.0------------
1991-03-03 1.3 8.6 -3.5 -6.0 86.8- 7.0 0.0---- 0.0------------
1991-03-02 1.3 3.1 -1.0 -2.0 82.5- 8.0 2.0---- 0.0------------
1991-03-01 -0.6 4.6 -6.2 -8.5 82.0- 3.7 3.0---- 0.0------------
1991-02-28 -0.6 1.0 -1.6 -4.6 92.3- 6.3 1.7---- 0.0------------
1991-02-27 0.2 1.5 -1.0 -3.6 82.3- 8.0 2.0---- 0.0------------
1991-02-26 4.1 8.5 0.8 -1.7 74.3- 4.7 2.7---- 0.0------------
1991-02-25 4.4 14.8 -2.4 -6.0 80.3- 5.0 1.0---- 0.0------------
1991-02-24 5.5 8.7 2.4 -3.2 81.5- 6.0 1.3---- 0.0------------
1991-02-23 3.5 8.9 -1.8 -5.7 75.3- 5.3 3.0---- 0.3------------
1991-02-22 1.4 7.6 -2.7 -5.8 77.3- 7.7 1.7---- 0.0------------
1991-02-21 -0.3 6.5 -5.5 -9.8 82.3- 3.3 0.3---- 0.0-- 3---------
1991-02-20 1.9 8.5 -7.0-11.0 74.5- 5.0 1.3---- 0.0-- 6---------
1991-02-19 -7.6 3.9-15.3-19.1 89.0- 2.0 0.3---- 0.0-- 7---------
1991-02-18 -2.2 2.1 -6.7-11.5 82.5- 5.0 2.3---- 0.0-- 8---------
1991-02-17 -2.0 1.3 -7.1-13.2 81.5- 3.3 3.0---- 0.0-- 9---------
1991-02-16 -2.8 -0.4 -5.4-11.0 73.5- 8.0 1.7---- 0.2-- 9---------
1991-02-15 -5.7 -1.2-12.8-21.1 72.3- 5.3 2.0---- 0.0-- 9---------
1991-02-14 -5.5 -3.1 -6.7-10.1 72.5- 4.3 3.7---- 0.0-- 9---------
1991-02-13 -4.6 -3.0 -6.7 -8.5 86.5- 8.0 3.0---- 2.1-- 7---------
1991-02-12 -9.2 -0.5-17.3-21.5 83.8- 7.0 0.3---- 0.1-- 8---------
1991-02-11 -2.0 1.8 -6.4-16.0 78.8- 4.7 2.3---- 0.0-- 8---------
1991-02-10 -7.2 2.9-16.7-19.0 87.0- 7.3 0.0---- 0.0-- 9---------
1991-02-09 -4.8 0.5-12.1-14.5 92.0- 5.3 0.3---- 0.0-- 9---------
1991-02-08 -8.4 -3.4-17.6-24.2 89.3- 8.0 2.3---- 2.6-- 7---------
1991-02-07-11.1 -8.7-14.1-19.7 84.3- 7.7 1.7---- 0.3-- 7---------
1991-02-06-14.9-11.0-24.5-26.2 82.8- 7.3 0.7---- 0.3-- 9---------
1991-02-05-11.7 -6.0-18.3-22.0 80.5- 7.3 2.7---- 0.9-- 8---------
1991-02-04 -7.5 -4.8-16.1-21.8 85.0- 8.0 0.7---- 1.8-- 2---------
1991-02-03-13.1 -7.0-18.6-23.2 79.0- 0.7 0.7---- 0.0-- 2---------
1991-02-02-16.1 -7.4-21.3-26.0 83.5- 1.0 0.3---- 0.0-- 2---------
1991-02-01-16.3 -9.9-20.1-26.2 75.0- 0.0 0.7---- 0.0-- 2---------
1991-01-31-14.8 -9.0-18.6-24.5 70.0- 0.0 1.3---- 0.0-- 2---------
1991-01-30 -3.8 0.0-11.1-16.8 76.8- 3.0 2.0---- 0.6-- 1---------
1991-01-29 -0.1 0.8 -1.0 -2.6 89.8- 8.0 3.7---- 1.2------------
1991-01-28 0.7 2.3 -0.3 -1.9 81.5- 8.0 2.0---- 0.0------------
1991-01-27 0.2 1.4 -0.5 -2.0 89.0- 8.0 1.7---- 0.2------------
1991-01-26 -1.4 0.8 -6.0-11.3 84.0- 8.0 2.3---- 0.0------------
1991-01-25 0.1 2.8 -2.2 -8.9 85.5- 3.0 2.7---- 0.0------------
1991-01-24 -0.2 1.1 -2.7 -8.5 92.5- 8.0 2.3---- 0.7------------
1991-01-23 0.9 2.6 0.0 -1.5 90.5- 8.0 0.7---- 0.1------------
1991-01-22 0.8 2.0 0.0 -1.6 96.3- 8.0 0.3---- 0.9-- 1---------
1991-01-21 -1.7 3.5 -9.5-16.2 74.5- 5.0 2.3---- 1.1------------
1991-01-20 -6.6 4.7-11.7-16.8 82.5- 0.0 0.3---- 0.0------------
1991-01-19 -6.9 2.8-13.1-18.3 86.3- 0.0 0.7---- 0.0------------
1991-01-18 -7.0 3.1-12.6-16.9 81.0- 0.0 0.0---- 0.0------------
1991-01-17 -7.2 0.9-12.3-17.0 80.0- 2.7 0.3---- 0.0------------
1991-01-16 -4.2 -0.9 -6.6-12.8 78.3- 0.0 0.7---- 0.0------------
1991-01-15 -6.2 -2.2-10.7-15.9 89.0- 8.0 1.3---- 0.0------------
2127.3 ms

 

Źródłem pochodzenia danych jest Instytut Meteorologii i Gospodarki Wodnej – Państwowy Instytut Badawczy. Dane Instytutu Meteorologii i Gospodarki Wodnej – Państwowego Instytutu Badawczego zostały przetworzone.

Dane źródłowe można odnaleźć na stronie https://dane.imgw.pl